<?xml version="1.0" encoding="UTF-8" standalone="no" ?>
<gpx xmlns="http://www.topografix.com/GPX/1/1" xmlns:xsi="http://www.w3.org/2001/XMLSchema-instance" xsi:schemaLocation="http://www.topografix.com/GPX/1/1 http://www.topografix.com/GPX/1/1/gpx.xsd" version="1.1" creator="VisuGPX - https://www.visugpx.com">
  <metadata>
    <name>14256069-bizin</name>
    <desc><![CDATA[Circuit non balisé à faire avec la carte en main où GPS.]]></desc>
  </metadata>
  <trk>
    <name><![CDATA[14256069-bizin]]></name>
    <trkseg>
      <trkpt lat="46.03303" lon="3.67069">
        <ele>821</ele>
        <time>2022-02-12T10:22:32Z</time>
      </trkpt>
      <trkpt lat="46.03372" lon="3.67242">
        <ele>820</ele>
        <time>2022-02-12T10:25:37Z</time>
      </trkpt>
      <trkpt lat="46.03376" lon="3.67487">
        <ele>819</ele>
        <time>2022-02-12T10:29:24Z</time>
      </trkpt>
      <trkpt lat="46.03423" lon="3.67722">
        <ele>824</ele>
        <time>2022-02-12T10:33:10Z</time>
      </trkpt>
      <trkpt lat="46.03505" lon="3.67997">
        <ele>826</ele>
        <time>2022-02-12T10:37:48Z</time>
      </trkpt>
      <trkpt lat="46.03416" lon="3.68079">
        <ele>825</ele>
        <time>2022-02-12T10:40:09Z</time>
      </trkpt>
      <trkpt lat="46.03338" lon="3.68186">
        <ele>818</ele>
        <time>2022-02-12T10:42:32Z</time>
      </trkpt>
      <trkpt lat="46.03296" lon="3.68408">
        <ele>821</ele>
        <time>2022-02-12T10:46:06Z</time>
      </trkpt>
      <trkpt lat="46.03376" lon="3.68551">
        <ele>803</ele>
        <time>2022-02-12T10:48:56Z</time>
      </trkpt>
      <trkpt lat="46.03399" lon="3.68732">
        <ele>796</ele>
        <time>2022-02-12T10:51:46Z</time>
      </trkpt>
      <trkpt lat="46.03386" lon="3.68926">
        <ele>798</ele>
        <time>2022-02-12T10:54:47Z</time>
      </trkpt>
      <trkpt lat="46.03438" lon="3.69138">
        <ele>790</ele>
        <time>2022-02-12T10:58:15Z</time>
      </trkpt>
      <trkpt lat="46.03499" lon="3.69409">
        <ele>777</ele>
        <time>2022-02-12T11:02:39Z</time>
      </trkpt>
      <trkpt lat="46.03591" lon="3.69516">
        <ele>763</ele>
        <time>2022-02-12T11:05:17Z</time>
      </trkpt>
      <trkpt lat="46.03597" lon="3.69653">
        <ele>752</ele>
        <time>2022-02-12T11:07:24Z</time>
      </trkpt>
      <trkpt lat="46.03573" lon="3.69756">
        <ele>748</ele>
        <time>2022-02-12T11:09:05Z</time>
      </trkpt>
      <trkpt lat="46.03562" lon="3.70057">
        <ele>725</ele>
        <time>2022-02-12T11:13:44Z</time>
      </trkpt>
      <trkpt lat="46.03484" lon="3.70121">
        <ele>712</ele>
        <time>2022-02-12T11:15:44Z</time>
      </trkpt>
      <trkpt lat="46.03475" lon="3.70207">
        <ele>698</ele>
        <time>2022-02-12T11:17:04Z</time>
      </trkpt>
      <trkpt lat="46.03496" lon="3.70374">
        <ele>686</ele>
        <time>2022-02-12T11:19:41Z</time>
      </trkpt>
      <trkpt lat="46.03487" lon="3.70555">
        <ele>674</ele>
        <time>2022-02-12T11:22:30Z</time>
      </trkpt>
      <trkpt lat="46.03413" lon="3.70392">
        <ele>671</ele>
        <time>2022-02-12T11:25:30Z</time>
      </trkpt>
      <trkpt lat="46.03222" lon="3.70138">
        <ele>681</ele>
        <time>2022-02-12T11:31:17Z</time>
      </trkpt>
      <trkpt lat="46.03195" lon="3.70186">
        <ele>675</ele>
        <time>2022-02-12T11:32:14Z</time>
      </trkpt>
      <trkpt lat="46.03133" lon="3.70147">
        <ele>686</ele>
        <time>2022-02-12T11:33:44Z</time>
      </trkpt>
      <trkpt lat="46.03055" lon="3.70198">
        <ele>687</ele>
        <time>2022-02-12T11:35:39Z</time>
      </trkpt>
      <trkpt lat="46.02966" lon="3.70151">
        <ele>705</ele>
        <time>2022-02-12T11:37:45Z</time>
      </trkpt>
      <trkpt lat="46.02885" lon="3.70263">
        <ele>705</ele>
        <time>2022-02-12T11:40:15Z</time>
      </trkpt>
      <trkpt lat="46.0286" lon="3.70319">
        <ele>703</ele>
        <time>2022-02-12T11:41:17Z</time>
      </trkpt>
      <trkpt lat="46.02769" lon="3.70319">
        <ele>721</ele>
        <time>2022-02-12T11:43:18Z</time>
      </trkpt>
      <trkpt lat="46.02671" lon="3.70259">
        <ele>758</ele>
        <time>2022-02-12T11:45:40Z</time>
      </trkpt>
      <trkpt lat="46.02557" lon="3.70289">
        <ele>766</ele>
        <time>2022-02-12T11:48:15Z</time>
      </trkpt>
      <trkpt lat="46.0242" lon="3.70276">
        <ele>786</ele>
        <time>2022-02-12T11:51:18Z</time>
      </trkpt>
      <trkpt lat="46.02319" lon="3.70289">
        <ele>792</ele>
        <time>2022-02-12T11:53:33Z</time>
      </trkpt>
      <trkpt lat="46.02274" lon="3.70297">
        <ele>797</ele>
        <time>2022-02-12T11:54:34Z</time>
      </trkpt>
      <trkpt lat="46.02254" lon="3.70237">
        <ele>802</ele>
        <time>2022-02-12T11:55:36Z</time>
      </trkpt>
      <trkpt lat="46.02164" lon="3.7007">
        <ele>826</ele>
        <time>2022-02-12T11:58:52Z</time>
      </trkpt>
      <trkpt lat="46.02173" lon="3.70035">
        <ele>830</ele>
        <time>2022-02-12T11:59:26Z</time>
      </trkpt>
      <trkpt lat="46.0209" lon="3.69905">
        <ele>842</ele>
        <time>2022-02-12T12:02:10Z</time>
      </trkpt>
      <trkpt lat="46.0203" lon="3.70012">
        <ele>847</ele>
        <time>2022-02-12T12:04:17Z</time>
      </trkpt>
      <trkpt lat="46.0198" lon="3.70001">
        <ele>851</ele>
        <time>2022-02-12T12:05:25Z</time>
      </trkpt>
      <trkpt lat="46.01914" lon="3.70018">
        <ele>857</ele>
        <time>2022-02-12T12:06:54Z</time>
      </trkpt>
      <trkpt lat="46.01846" lon="3.70052">
        <ele>861</ele>
        <time>2022-02-12T12:08:30Z</time>
      </trkpt>
      <trkpt lat="46.01821" lon="3.70073">
        <ele>863</ele>
        <time>2022-02-12T12:09:09Z</time>
      </trkpt>
      <trkpt lat="46.01805" lon="3.70097">
        <ele>864</ele>
        <time>2022-02-12T12:09:40Z</time>
      </trkpt>
      <trkpt lat="46.01788" lon="3.70109">
        <ele>864</ele>
        <time>2022-02-12T12:10:05Z</time>
      </trkpt>
      <trkpt lat="46.01679" lon="3.70275">
        <ele>860</ele>
        <time>2022-02-12T12:13:37Z</time>
      </trkpt>
      <trkpt lat="46.01658" lon="3.70295">
        <ele>859</ele>
        <time>2022-02-12T12:14:10Z</time>
      </trkpt>
      <trkpt lat="46.0161" lon="3.70298">
        <ele>861</ele>
        <time>2022-02-12T12:15:14Z</time>
      </trkpt>
      <trkpt lat="46.01516" lon="3.70264">
        <ele>865</ele>
        <time>2022-02-12T12:17:24Z</time>
      </trkpt>
      <trkpt lat="46.01491" lon="3.70269">
        <ele>867</ele>
        <time>2022-02-12T12:17:57Z</time>
      </trkpt>
      <trkpt lat="46.01395" lon="3.70345">
        <ele>882</ele>
        <time>2022-02-12T12:20:24Z</time>
      </trkpt>
      <trkpt lat="46.01286" lon="3.70399">
        <ele>891</ele>
        <time>2022-02-12T12:22:57Z</time>
      </trkpt>
      <trkpt lat="46.0118" lon="3.7043">
        <ele>898</ele>
        <time>2022-02-12T12:25:22Z</time>
      </trkpt>
      <trkpt lat="46.01109" lon="3.70423">
        <ele>899</ele>
        <time>2022-02-12T12:26:57Z</time>
      </trkpt>
      <trkpt lat="46.01094" lon="3.70402">
        <ele>898</ele>
        <time>2022-02-12T12:27:25Z</time>
      </trkpt>
      <trkpt lat="46.01166" lon="3.70413">
        <ele>898</ele>
        <time>2022-02-12T12:29:01Z</time>
      </trkpt>
      <trkpt lat="46.01266" lon="3.70382">
        <ele>889</ele>
        <time>2022-02-12T12:31:18Z</time>
      </trkpt>
      <trkpt lat="46.01336" lon="3.70351">
        <ele>883</ele>
        <time>2022-02-12T12:32:55Z</time>
      </trkpt>
      <trkpt lat="46.01411" lon="3.70305">
        <ele>874</ele>
        <time>2022-02-12T12:34:44Z</time>
      </trkpt>
      <trkpt lat="46.01485" lon="3.70246">
        <ele>863</ele>
        <time>2022-02-12T12:36:37Z</time>
      </trkpt>
      <trkpt lat="46.01511" lon="3.70242">
        <ele>862</ele>
        <time>2022-02-12T12:37:12Z</time>
      </trkpt>
      <trkpt lat="46.01649" lon="3.70279">
        <ele>860</ele>
        <time>2022-02-12T12:40:19Z</time>
      </trkpt>
      <trkpt lat="46.01669" lon="3.70259">
        <ele>860</ele>
        <time>2022-02-12T12:40:52Z</time>
      </trkpt>
      <trkpt lat="46.01767" lon="3.70097">
        <ele>862</ele>
        <time>2022-02-12T12:44:11Z</time>
      </trkpt>
      <trkpt lat="46.01793" lon="3.70068">
        <ele>862</ele>
        <time>2022-02-12T12:44:55Z</time>
      </trkpt>
      <trkpt lat="46.01859" lon="3.70017">
        <ele>858</ele>
        <time>2022-02-12T12:46:35Z</time>
      </trkpt>
      <trkpt lat="46.02006" lon="3.69953">
        <ele>846</ele>
        <time>2022-02-12T12:50:00Z</time>
      </trkpt>
      <trkpt lat="46.02075" lon="3.69831">
        <ele>839</ele>
        <time>2022-02-12T12:52:26Z</time>
      </trkpt>
      <trkpt lat="46.02215" lon="3.69748">
        <ele>844</ele>
        <time>2022-02-12T12:55:48Z</time>
      </trkpt>
      <trkpt lat="46.02367" lon="3.69628">
        <ele>854</ele>
        <time>2022-02-12T12:59:39Z</time>
      </trkpt>
      <trkpt lat="46.02489" lon="3.69568">
        <ele>861</ele>
        <time>2022-02-12T13:02:31Z</time>
      </trkpt>
      <trkpt lat="46.02656" lon="3.69465">
        <ele>871</ele>
        <time>2022-02-12T13:06:33Z</time>
      </trkpt>
      <trkpt lat="46.02814" lon="3.69151">
        <ele>863</ele>
        <time>2022-02-12T13:12:33Z</time>
      </trkpt>
      <trkpt lat="46.029" lon="3.6889">
        <ele>864</ele>
        <time>2022-02-12T13:17:00Z</time>
      </trkpt>
      <trkpt lat="46.02945" lon="3.68688">
        <ele>856</ele>
        <time>2022-02-12T13:20:17Z</time>
      </trkpt>
      <trkpt lat="46.03037" lon="3.68357">
        <ele>844</ele>
        <time>2022-02-12T13:25:47Z</time>
      </trkpt>
      <trkpt lat="46.03165" lon="3.6813">
        <ele>850</ele>
        <time>2022-02-12T13:30:18Z</time>
      </trkpt>
      <trkpt lat="46.03314" lon="3.67907">
        <ele>854</ele>
        <time>2022-02-12T13:35:05Z</time>
      </trkpt>
      <trkpt lat="46.0336" lon="3.67853">
        <ele>849</ele>
        <time>2022-02-12T13:36:24Z</time>
      </trkpt>
      <trkpt lat="46.0335" lon="3.67727">
        <ele>844</ele>
        <time>2022-02-12T13:38:22Z</time>
      </trkpt>
      <trkpt lat="46.03341" lon="3.67585">
        <ele>829</ele>
        <time>2022-02-12T13:40:34Z</time>
      </trkpt>
      <trkpt lat="46.03317" lon="3.67478">
        <ele>827</ele>
        <time>2022-02-12T13:42:18Z</time>
      </trkpt>
      <trkpt lat="46.03342" lon="3.67343">
        <ele>821</ele>
        <time>2022-02-12T13:44:27Z</time>
      </trkpt>
      <trkpt lat="46.03323" lon="3.67289">
        <ele>820</ele>
        <time>2022-02-12T13:45:23Z</time>
      </trkpt>
      <trkpt lat="46.03317" lon="3.67231">
        <ele>819</ele>
        <time>2022-02-12T13:46:18Z</time>
      </trkpt>
      <trkpt lat="46.03267" lon="3.67087">
        <ele>819</ele>
        <time>2022-02-12T13:48:47Z</time>
      </trkpt>
    </trkseg>
  </trk>
</gpx>